John F Kennedy International Airport

KJFK | JFK

New York , New-York , United States

Thursday, September 19th, 2019 | 15:23

Weather

KJFK 191851Z 19010KT 10SM FEW250 18/10 A3033 RMK AO2 SLP270 T01830100

Charts

54 Available

Gates

335 Available

Runways

4 Available

Events

No events for this airport


New event